Terminal Aerodrome Forecast
Issued by NWS

Home | Current Version | Previous Version | Text Only | Print | Product List | Glossary On
Versions: 1 2 3 4 5 6 7 8 9 10 11 12 13 14 15 16 17 18 19 20 21 22 23 24 25 26 27 28 29 30 31 32 33 34
000
FTUS46 KPQR 181121
TAFUAO
TAF
KUAO 181121Z 1812/1912 02003KT P6SM OVC025
     FM181700 01006KT P6SM BKN035
     FM181900 01005KT P6SM SCT040
     FM190100 35010G16KT P6SM SCT250
     FM190400 35006KT P6SM SCT250=

USA.gov is the U.S. government's official web portal to all federal, state and local government web resources and services.